RYR84KK LEAM-EBCI
Flight info
| Callsign | RYR84KK |
|---|---|
| Flight time | 2h 40m |
| Altitude | 34000 |
| Route | ESILA N865 VTB DCT RBO DCT OSTIX DCT GASMO DCT DGO N858 ABRIX DCT CNA DCT ADABI DCT BOKNO UN858 VANAD UN874 BAMES UT191 PODEM UN873 BAZOS DCT BELDI DCT VEKIN Z173 ARVOL |
| Aircraft | B738/M-SDE2E3FGHIRWXY/LB1 |
Departure
| Time | 2026-04-13 15:56 |
|---|---|
| Airport | Almería Airport (LEAM) |
Arrival
| Time | 2026-04-13 18:37 |
|---|---|
| Airport | Brussels South Charleroi Airport (EBCI) |
| Time | Latitude | Longitude | Altitude | Speed | Heading |
|---|---|---|---|---|---|
| 2026-04-13 15:33 | 36.84676 | -2.37155 | 59 ft | 0 kts | 148° |
| 2026-04-13 15:51 | 36.84674 | -2.37153 | 68 ft | 1 kts | 148° |
| 2026-04-13 15:51 | 36.84654 | -2.37138 | 63 ft | 6 kts | 148° |
| 2026-04-13 15:51 | 36.84632 | -2.37093 | 65 ft | 7 kts | 86° |
| 2026-04-13 15:51 | 36.84642 | -2.37022 | 59 ft | 9 kts | 72° |
| 2026-04-13 15:52 | 36.84641 | -2.36938 | 65 ft | 11 kts | 118° |
| 2026-04-13 15:52 | 36.84612 | -2.36840 | 60 ft | 13 kts | 87° |
| 2026-04-13 15:52 | 36.84637 | -2.36732 | 64 ft | 13 kts | 72° |
| 2026-04-13 15:52 | 36.84663 | -2.36626 | 63 ft | 13 kts | 73° |
| 2026-04-13 15:53 | 36.84688 | -2.36524 | 61 ft | 12 kts | 73° |
| 2026-04-13 15:53 | 36.84713 | -2.36424 | 59 ft | 12 kts | 73° |
| 2026-04-13 15:53 | 36.84737 | -2.36326 | 65 ft | 12 kts | 73° |
| 2026-04-13 15:53 | 36.84761 | -2.36230 | 62 ft | 12 kts | 73° |
| 2026-04-13 15:54 | 36.84788 | -2.36121 | 59 ft | 15 kts | 73° |
| 2026-04-13 15:54 | 36.84821 | -2.35981 | 64 ft | 19 kts | 73° |
| 2026-04-13 15:54 | 36.84862 | -2.35818 | 62 ft | 20 kts | 72° |
| 2026-04-13 15:54 | 36.84901 | -2.35657 | 59 ft | 19 kts | 73° |
| 2026-04-13 15:55 | 36.84939 | -2.35502 | 64 ft | 18 kts | 73° |
| 2026-04-13 15:55 | 36.84931 | -2.35354 | 62 ft | 18 kts | 135° |
| 2026-04-13 15:55 | 36.84819 | -2.35346 | 57 ft | 17 kts | 221° |
| 2026-04-13 15:55 | 36.84771 | -2.35479 | 55 ft | 17 kts | 253° |
| 2026-04-13 15:56 | 36.84708 | -2.35733 | 56 ft | 58 kts | 253° |
| 2026-04-13 15:56 | 36.84524 | -2.36484 | 60 ft | 121 kts | 253° |
| 2026-04-13 15:56 | 36.84203 | -2.37692 | 108 ft | 167 kts | 253° |
| 2026-04-13 15:56 | 36.83743 | -2.39051 | 743 ft | 169 kts | 250° |
| 2026-04-13 15:57 | 36.83383 | -2.40460 | 1427 ft | 173 kts | 257° |
| 2026-04-13 15:57 | 36.83069 | -2.41996 | 1837 ft | 196 kts | 258° |
| 2026-04-13 15:57 | 36.82702 | -2.43716 | 2076 ft | 218 kts | 257° |
| 2026-04-13 15:57 | 36.82266 | -2.45608 | 2400 ft | 232 kts | 257° |
| 2026-04-13 15:58 | 36.81795 | -2.47557 | 2909 ft | 238 kts | 256° |
| 2026-04-13 15:58 | 36.81306 | -2.49541 | 3531 ft | 242 kts | 256° |
| 2026-04-13 15:58 | 36.80806 | -2.51559 | 4348 ft | 241 kts | 257° |
| 2026-04-13 15:58 | 36.80312 | -2.53565 | 5135 ft | 243 kts | 257° |
| 2026-04-13 15:59 | 36.79813 | -2.55594 | 5867 ft | 246 kts | 258° |
| 2026-04-13 15:59 | 36.79307 | -2.57644 | 6617 ft | 249 kts | 258° |
| 2026-04-13 15:59 | 36.78794 | -2.59717 | 7305 ft | 252 kts | 258° |
| 2026-04-13 15:59 | 36.78274 | -2.61816 | 7998 ft | 255 kts | 257° |
| 2026-04-13 16:00 | 36.77899 | -2.63971 | 8668 ft | 253 kts | 277° |
| 2026-04-13 16:00 | 36.78370 | -2.66011 | 9392 ft | 244 kts | 306° |
| 2026-04-13 16:00 | 36.79547 | -2.67507 | 10013 ft | 244 kts | 329° |
| 2026-04-13 16:00 | 36.81127 | -2.68369 | 10507 ft | 251 kts | 343° |
| 2026-04-13 16:01 | 36.82792 | -2.68996 | 11300 ft | 248 kts | 344° |
| 2026-04-13 16:01 | 36.84437 | -2.69598 | 12105 ft | 247 kts | 345° |
| 2026-04-13 16:01 | 36.86081 | -2.70201 | 12897 ft | 246 kts | 345° |
| 2026-04-13 16:01 | 36.87717 | -2.70808 | 13717 ft | 245 kts | 344° |
| 2026-04-13 16:02 | 36.89362 | -2.71423 | 14320 ft | 249 kts | 344° |
| 2026-04-13 16:02 | 36.91016 | -2.72045 | 15079 ft | 247 kts | 345° |
| 2026-04-13 16:02 | 36.92662 | -2.72666 | 15797 ft | 248 kts | 345° |
| 2026-04-13 16:02 | 36.94315 | -2.73293 | 16521 ft | 249 kts | 345° |
| 2026-04-13 16:03 | 36.95981 | -2.73925 | 17254 ft | 251 kts | 345° |
| 2026-04-13 16:03 | 36.97662 | -2.74566 | 17908 ft | 255 kts | 345° |
| 2026-04-13 16:03 | 36.99370 | -2.75215 | 18532 ft | 258 kts | 345° |
| 2026-04-13 16:03 | 37.01093 | -2.75870 | 19185 ft | 259 kts | 345° |
| 2026-04-13 16:04 | 37.02817 | -2.76527 | 19803 ft | 260 kts | 345° |
| 2026-04-13 16:04 | 37.04450 | -2.77531 | 20347 ft | 268 kts | 325° |
| 2026-04-13 16:04 | 37.05804 | -2.79215 | 20663 ft | 288 kts | 311° |
| 2026-04-13 16:04 | 37.06858 | -2.81475 | 20808 ft | 311 kts | 304° |
| 2026-04-13 16:05 | 37.07857 | -2.83969 | 20924 ft | 329 kts | 302° |
| 2026-04-13 16:05 | 37.08884 | -2.86613 | 21076 ft | 346 kts | 302° |
| 2026-04-13 16:05 | 37.09965 | -2.89398 | 21197 ft | 364 kts | 302° |
| 2026-04-13 16:05 | 37.11101 | -2.92309 | 21342 ft | 379 kts | 302° |
| 2026-04-13 16:06 | 37.12275 | -2.95305 | 21720 ft | 386 kts | 302° |
| 2026-04-13 16:06 | 37.13463 | -2.98327 | 22296 ft | 387 kts | 302° |
| 2026-04-13 16:06 | 37.14653 | -3.01349 | 22906 ft | 387 kts | 302° |
| 2026-04-13 16:06 | 37.15853 | -3.04384 | 23455 ft | 389 kts | 302° |
| 2026-04-13 16:07 | 37.17059 | -3.07430 | 23904 ft | 391 kts | 301° |
| 2026-04-13 16:07 | 37.18273 | -3.10497 | 24348 ft | 393 kts | 301° |
| 2026-04-13 16:07 | 37.19489 | -3.13572 | 24782 ft | 395 kts | 301° |
| 2026-04-13 16:07 | 37.20716 | -3.16675 | 25123 ft | 399 kts | 301° |
| 2026-04-13 16:08 | 37.21953 | -3.19808 | 25472 ft | 402 kts | 301° |
| 2026-04-13 16:08 | 37.23197 | -3.22962 | 25873 ft | 404 kts | 301° |
| 2026-04-13 16:08 | 37.24445 | -3.26129 | 26272 ft | 406 kts | 301° |
| 2026-04-13 16:08 | 37.25703 | -3.29314 | 26635 ft | 408 kts | 301° |
| 2026-04-13 16:09 | 37.26979 | -3.32506 | 26991 ft | 410 kts | 302° |
| 2026-04-13 16:09 | 37.28267 | -3.35707 | 27328 ft | 412 kts | 302° |
| 2026-04-13 16:09 | 37.29123 | -3.37837 | 27579 ft | 413 kts | 302° |
| 2026-04-13 16:09 | 37.30849 | -3.42141 | 28239 ft | 411 kts | 302° |
| 2026-04-13 16:10 | 37.32127 | -3.45341 | 28702 ft | 408 kts | 301° |
| 2026-04-13 16:10 | 37.33398 | -3.48526 | 29166 ft | 407 kts | 301° |
| 2026-04-13 16:10 | 37.34665 | -3.51701 | 29643 ft | 407 kts | 301° |
| 2026-04-13 16:10 | 37.35928 | -3.54869 | 30161 ft | 405 kts | 301° |
| 2026-04-13 16:11 | 37.37321 | -3.57911 | 30568 ft | 397 kts | 313° |
| 2026-04-13 16:11 | 37.39304 | -3.60253 | 30932 ft | 389 kts | 328° |
| 2026-04-13 16:11 | 37.41655 | -3.61891 | 31316 ft | 385 kts | 338° |
| 2026-04-13 16:11 | 37.44192 | -3.62924 | 31718 ft | 384 kts | 349° |
| 2026-04-13 16:12 | 37.46818 | -3.63187 | 32098 ft | 384 kts | 357° |
| 2026-04-13 16:12 | 37.49482 | -3.63158 | 32518 ft | 382 kts | 359° |
| 2026-04-13 16:12 | 37.52138 | -3.63083 | 32914 ft | 381 kts | 359° |
| 2026-04-13 16:12 | 37.54777 | -3.63016 | 33331 ft | 378 kts | 358° |
| 2026-04-13 16:13 | 37.57397 | -3.62969 | 33767 ft | 375 kts | 358° |
| 2026-04-13 16:13 | 37.60001 | -3.62940 | 34094 ft | 375 kts | 358° |
| 2026-04-13 16:13 | 37.65275 | -3.62899 | 34077 ft | 380 kts | 358° |
| 2026-04-13 16:14 | 37.70530 | -3.62857 | 34080 ft | 373 kts | 358° |
| 2026-04-13 16:14 | 37.75707 | -3.62815 | 34088 ft | 372 kts | 358° |
| 2026-04-13 16:15 | 37.80892 | -3.62775 | 34083 ft | 373 kts | 358° |
| 2026-04-13 16:15 | 37.86096 | -3.62734 | 34081 ft | 374 kts | 358° |
| 2026-04-13 16:16 | 37.91305 | -3.62693 | 34092 ft | 375 kts | 358° |
| 2026-04-13 16:16 | 37.96522 | -3.62651 | 34080 ft | 375 kts | 358° |
| 2026-04-13 16:17 | 38.00864 | -3.62616 | 34085 ft | 375 kts | 358° |
| 2026-04-13 16:17 | 38.06971 | -3.62567 | 34070 ft | 375 kts | 358° |
| 2026-04-13 16:18 | 38.11302 | -3.62532 | 34081 ft | 374 kts | 358° |
| 2026-04-13 16:18 | 38.16505 | -3.62430 | 34070 ft | 375 kts | 0° |
| 2026-04-13 16:19 | 38.21715 | -3.61952 | 34073 ft | 375 kts | 1° |
| 2026-04-13 16:19 | 38.26919 | -3.61405 | 34066 ft | 375 kts | 1° |
| 2026-04-13 16:20 | 38.32119 | -3.60877 | 34078 ft | 375 kts | 1° |
| 2026-04-13 16:20 | 38.37316 | -3.60363 | 34078 ft | 375 kts | 1° |
| 2026-04-13 16:21 | 38.42474 | -3.59187 | 34087 ft | 378 kts | 8° |
| 2026-04-13 16:21 | 38.47605 | -3.57656 | 34081 ft | 379 kts | 9° |
| 2026-04-13 16:22 | 38.52748 | -3.56132 | 34075 ft | 379 kts | 8° |
| 2026-04-13 16:23 | 38.60437 | -3.53889 | 34090 ft | 380 kts | 8° |
| 2026-04-13 16:23 | 38.65591 | -3.52395 | 34080 ft | 380 kts | 8° |
| 2026-04-13 16:24 | 38.70745 | -3.50900 | 34075 ft | 380 kts | 8° |
| 2026-04-13 16:24 | 38.75904 | -3.49403 | 34073 ft | 380 kts | 8° |
| 2026-04-13 16:25 | 38.81059 | -3.47904 | 34070 ft | 380 kts | 8° |
| 2026-04-13 16:25 | 38.86226 | -3.46400 | 34068 ft | 381 kts | 8° |
| 2026-04-13 16:26 | 38.91391 | -3.44894 | 34073 ft | 381 kts | 8° |
| 2026-04-13 16:26 | 38.96559 | -3.43385 | 34074 ft | 380 kts | 8° |
| 2026-04-13 16:27 | 39.01726 | -3.41874 | 34085 ft | 381 kts | 8° |
| 2026-04-13 16:27 | 39.06894 | -3.40360 | 34074 ft | 381 kts | 8° |
| 2026-04-13 16:28 | 39.11979 | -3.38869 | 34067 ft | 380 kts | 8° |
| 2026-04-13 16:28 | 39.17129 | -3.37356 | 34066 ft | 379 kts | 8° |
| 2026-04-13 16:29 | 39.22267 | -3.35844 | 34075 ft | 379 kts | 8° |
| 2026-04-13 16:29 | 39.27400 | -3.34332 | 34077 ft | 378 kts | 9° |
| 2026-04-13 16:30 | 39.32495 | -3.32829 | 34056 ft | 378 kts | 9° |
| 2026-04-13 16:30 | 39.37626 | -3.31313 | 34077 ft | 379 kts | 9° |
| 2026-04-13 16:31 | 39.42774 | -3.29789 | 34081 ft | 380 kts | 9° |
| 2026-04-13 16:31 | 39.47936 | -3.28259 | 34077 ft | 381 kts | 9° |
| 2026-04-13 16:32 | 39.53007 | -3.26754 | 34073 ft | 383 kts | 9° |
| 2026-04-13 16:32 | 39.58210 | -3.25207 | 34072 ft | 384 kts | 9° |
| 2026-04-13 16:33 | 39.63424 | -3.23655 | 34074 ft | 385 kts | 9° |
| 2026-04-13 16:33 | 39.68651 | -3.22096 | 34075 ft | 386 kts | 9° |
| 2026-04-13 16:34 | 39.73887 | -3.20531 | 34070 ft | 386 kts | 9° |
| 2026-04-13 16:34 | 39.79122 | -3.18965 | 34068 ft | 386 kts | 9° |
| 2026-04-13 16:35 | 39.84357 | -3.17396 | 34063 ft | 386 kts | 9° |
| 2026-04-13 16:35 | 39.89582 | -3.15828 | 34050 ft | 385 kts | 9° |
| 2026-04-13 16:36 | 39.94795 | -3.14261 | 34065 ft | 384 kts | 9° |
| 2026-04-13 16:36 | 39.99999 | -3.12694 | 34072 ft | 383 kts | 9° |
| 2026-04-13 16:37 | 40.05197 | -3.11127 | 34062 ft | 383 kts | 9° |
| 2026-04-13 16:37 | 40.10388 | -3.09559 | 34060 ft | 383 kts | 9° |
| 2026-04-13 16:38 | 40.15583 | -3.07988 | 34055 ft | 383 kts | 9° |
| 2026-04-13 16:38 | 40.20768 | -3.06417 | 34051 ft | 382 kts | 9° |
| 2026-04-13 16:39 | 40.25941 | -3.04848 | 34075 ft | 382 kts | 9° |
| 2026-04-13 16:39 | 40.31094 | -3.03282 | 34057 ft | 383 kts | 9° |
| 2026-04-13 16:40 | 40.36321 | -3.01692 | 34050 ft | 384 kts | 9° |
| 2026-04-13 16:40 | 40.41530 | -3.00104 | 34058 ft | 385 kts | 9° |
| 2026-04-13 16:41 | 40.46713 | -2.98521 | 34048 ft | 386 kts | 9° |
| 2026-04-13 16:41 | 40.51945 | -2.96921 | 34056 ft | 387 kts | 9° |
| 2026-04-13 16:42 | 40.57196 | -2.95313 | 34043 ft | 388 kts | 9° |
| 2026-04-13 16:42 | 40.62456 | -2.93699 | 34054 ft | 389 kts | 9° |
| 2026-04-13 16:43 | 40.67732 | -2.92078 | 34051 ft | 390 kts | 9° |
| 2026-04-13 16:43 | 40.73013 | -2.90452 | 34055 ft | 389 kts | 9° |
| 2026-04-13 16:44 | 40.78285 | -2.88826 | 34049 ft | 389 kts | 9° |
| 2026-04-13 16:44 | 40.83550 | -2.87200 | 34044 ft | 388 kts | 9° |
| 2026-04-13 16:45 | 40.88808 | -2.85574 | 34030 ft | 388 kts | 9° |
| 2026-04-13 16:45 | 40.94050 | -2.83949 | 34045 ft | 387 kts | 9° |
| 2026-04-13 16:46 | 40.99294 | -2.82322 | 34045 ft | 387 kts | 9° |
| 2026-04-13 16:46 | 41.04536 | -2.80693 | 34059 ft | 387 kts | 9° |
| 2026-04-13 16:47 | 41.09783 | -2.79060 | 34043 ft | 387 kts | 9° |
| 2026-04-13 16:47 | 41.14993 | -2.77435 | 34052 ft | 387 kts | 9° |
| 2026-04-13 16:48 | 41.20244 | -2.75795 | 34046 ft | 388 kts | 10° |
| 2026-04-13 16:48 | 41.25505 | -2.74149 | 34042 ft | 389 kts | 10° |
| 2026-04-13 16:49 | 41.30776 | -2.72497 | 34051 ft | 389 kts | 10° |
| 2026-04-13 16:49 | 41.36057 | -2.70840 | 34048 ft | 390 kts | 10° |
| 2026-04-13 16:50 | 41.41351 | -2.69175 | 34042 ft | 391 kts | 10° |
| 2026-04-13 16:50 | 41.46642 | -2.67508 | 34053 ft | 391 kts | 10° |
| 2026-04-13 16:51 | 41.51944 | -2.65835 | 34051 ft | 391 kts | 10° |
| 2026-04-13 16:51 | 41.57232 | -2.64164 | 34053 ft | 390 kts | 10° |
| 2026-04-13 16:52 | 41.62511 | -2.62492 | 34047 ft | 389 kts | 10° |
| 2026-04-13 16:52 | 41.67764 | -2.60826 | 34056 ft | 387 kts | 10° |
| 2026-04-13 16:53 | 41.72965 | -2.59174 | 34054 ft | 386 kts | 10° |
| 2026-04-13 16:53 | 41.78178 | -2.57516 | 34064 ft | 385 kts | 10° |
| 2026-04-13 16:54 | 41.83386 | -2.55856 | 34064 ft | 384 kts | 10° |
| 2026-04-13 16:54 | 41.88569 | -2.54202 | 34072 ft | 384 kts | 10° |
| 2026-04-13 16:55 | 41.93784 | -2.52535 | 34077 ft | 384 kts | 10° |
| 2026-04-13 16:55 | 41.98989 | -2.50868 | 34065 ft | 385 kts | 10° |
| 2026-04-13 16:56 | 42.04203 | -2.49195 | 34089 ft | 386 kts | 10° |
| 2026-04-13 16:56 | 42.09441 | -2.47512 | 34087 ft | 388 kts | 10° |
| 2026-04-13 16:57 | 42.14705 | -2.45818 | 34093 ft | 390 kts | 10° |
| 2026-04-13 16:57 | 42.20001 | -2.44110 | 34090 ft | 392 kts | 10° |
| 2026-04-13 16:58 | 42.25323 | -2.42391 | 34098 ft | 394 kts | 10° |
| 2026-04-13 16:58 | 42.30663 | -2.40662 | 34102 ft | 395 kts | 10° |
| 2026-04-13 16:59 | 42.36014 | -2.38928 | 34094 ft | 395 kts | 10° |
| 2026-04-13 16:59 | 42.41351 | -2.37194 | 34111 ft | 394 kts | 10° |
| 2026-04-13 17:00 | 42.46670 | -2.35463 | 34098 ft | 392 kts | 10° |
| 2026-04-13 17:00 | 42.51952 | -2.33741 | 34100 ft | 389 kts | 10° |
| 2026-04-13 17:01 | 42.57209 | -2.32025 | 34102 ft | 387 kts | 10° |
| 2026-04-13 17:01 | 42.62438 | -2.30315 | 34099 ft | 386 kts | 10° |
| 2026-04-13 17:02 | 42.67654 | -2.28607 | 34132 ft | 386 kts | 10° |
| 2026-04-13 17:02 | 42.72844 | -2.26905 | 34109 ft | 386 kts | 10° |
| 2026-04-13 17:03 | 42.78066 | -2.25189 | 34102 ft | 386 kts | 10° |
| 2026-04-13 17:03 | 42.83293 | -2.23468 | 34109 ft | 386 kts | 10° |
| 2026-04-13 17:04 | 42.88517 | -2.21745 | 34107 ft | 387 kts | 10° |
| 2026-04-13 17:04 | 42.93746 | -2.20016 | 34105 ft | 387 kts | 10° |
| 2026-04-13 17:05 | 42.98969 | -2.18288 | 34110 ft | 386 kts | 10° |
| 2026-04-13 17:05 | 43.04196 | -2.16555 | 34123 ft | 387 kts | 10° |
| 2026-04-13 17:06 | 43.09449 | -2.14811 | 34135 ft | 389 kts | 10° |
| 2026-04-13 17:06 | 43.14731 | -2.13053 | 34117 ft | 392 kts | 10° |
| 2026-04-13 17:07 | 43.20036 | -2.11285 | 34131 ft | 393 kts | 10° |
| 2026-04-13 17:07 | 43.25358 | -2.09507 | 34134 ft | 394 kts | 10° |
| 2026-04-13 17:08 | 43.30689 | -2.07723 | 34131 ft | 395 kts | 10° |
| 2026-04-13 17:08 | 43.36032 | -2.05932 | 34125 ft | 395 kts | 10° |
| 2026-04-13 17:09 | 43.40468 | -2.04443 | 34132 ft | 394 kts | 10° |
| 2026-04-13 17:09 | 43.45800 | -2.02649 | 34130 ft | 394 kts | 9° |
| 2026-04-13 17:10 | 43.51121 | -2.00857 | 34125 ft | 393 kts | 9° |
| 2026-04-13 17:10 | 43.56427 | -1.99065 | 34128 ft | 392 kts | 9° |
| 2026-04-13 17:11 | 43.61727 | -1.97274 | 34141 ft | 392 kts | 9° |
| 2026-04-13 17:11 | 43.66863 | -1.94640 | 34124 ft | 400 kts | 24° |
| 2026-04-13 17:12 | 43.71687 | -1.90806 | 34141 ft | 400 kts | 25° |
| 2026-04-13 17:12 | 43.76511 | -1.86940 | 34131 ft | 401 kts | 25° |
| 2026-04-13 17:13 | 43.81339 | -1.83091 | 34109 ft | 401 kts | 25° |
| 2026-04-13 17:13 | 43.86175 | -1.79248 | 34114 ft | 401 kts | 24° |
| 2026-04-13 17:14 | 43.91012 | -1.75403 | 34112 ft | 401 kts | 24° |
| 2026-04-13 17:14 | 43.95856 | -1.71546 | 34125 ft | 401 kts | 24° |
| 2026-04-13 17:15 | 44.00701 | -1.67681 | 34124 ft | 402 kts | 24° |
| 2026-04-13 17:15 | 44.05555 | -1.63802 | 34110 ft | 403 kts | 24° |
| 2026-04-13 17:16 | 44.10382 | -1.59937 | 34115 ft | 403 kts | 24° |
| 2026-04-13 17:16 | 44.15248 | -1.56033 | 34110 ft | 404 kts | 25° |
| 2026-04-13 17:17 | 44.20123 | -1.52114 | 34121 ft | 405 kts | 25° |
| 2026-04-13 17:17 | 44.25001 | -1.48185 | 34116 ft | 405 kts | 24° |
| 2026-04-13 17:18 | 44.29885 | -1.44243 | 34103 ft | 406 kts | 25° |
| 2026-04-13 17:18 | 44.34772 | -1.40292 | 34105 ft | 405 kts | 25° |
| 2026-04-13 17:19 | 44.39649 | -1.36340 | 34103 ft | 405 kts | 25° |
| 2026-04-13 17:19 | 44.44526 | -1.32382 | 34102 ft | 405 kts | 24° |
| 2026-04-13 17:20 | 44.49398 | -1.28420 | 34105 ft | 405 kts | 25° |
| 2026-04-13 17:20 | 44.54273 | -1.24447 | 34106 ft | 405 kts | 25° |
| 2026-04-13 17:21 | 44.59144 | -1.20470 | 34105 ft | 406 kts | 25° |
| 2026-04-13 17:21 | 44.64026 | -1.16477 | 34101 ft | 406 kts | 25° |
| 2026-04-13 17:22 | 44.68911 | -1.12473 | 34116 ft | 407 kts | 25° |
| 2026-04-13 17:22 | 44.73793 | -1.08462 | 34100 ft | 407 kts | 25° |
| 2026-04-13 17:23 | 44.78644 | -1.04470 | 34092 ft | 406 kts | 25° |
| 2026-04-13 17:23 | 44.83554 | -1.00422 | 34092 ft | 406 kts | 25° |
| 2026-04-13 17:24 | 44.88392 | -0.96425 | 34090 ft | 406 kts | 25° |
| 2026-04-13 17:24 | 44.93256 | -0.92398 | 34096 ft | 405 kts | 25° |
| 2026-04-13 17:25 | 44.98114 | -0.88368 | 34095 ft | 405 kts | 25° |
| 2026-04-13 17:25 | 45.02972 | -0.84331 | 34078 ft | 405 kts | 25° |
| 2026-04-13 17:26 | 45.07828 | -0.80287 | 34082 ft | 405 kts | 25° |
| 2026-04-13 17:26 | 45.12687 | -0.76232 | 34095 ft | 406 kts | 25° |
| 2026-04-13 17:27 | 45.19981 | -0.70130 | 34094 ft | 406 kts | 25° |
| 2026-04-13 17:27 | 45.24844 | -0.66052 | 34075 ft | 406 kts | 25° |
| 2026-04-13 17:28 | 45.29709 | -0.61964 | 34069 ft | 406 kts | 25° |
| 2026-04-13 17:28 | 45.34572 | -0.57869 | 34071 ft | 406 kts | 25° |
| 2026-04-13 17:29 | 45.39433 | -0.53767 | 34088 ft | 406 kts | 25° |
| 2026-04-13 17:29 | 45.44295 | -0.49657 | 34074 ft | 407 kts | 25° |
| 2026-04-13 17:30 | 45.49161 | -0.45534 | 34071 ft | 407 kts | 25° |
| 2026-04-13 17:30 | 45.54023 | -0.41407 | 34066 ft | 407 kts | 25° |
| 2026-04-13 17:31 | 45.58887 | -0.37268 | 34085 ft | 407 kts | 25° |
| 2026-04-13 17:31 | 45.63726 | -0.33144 | 34077 ft | 408 kts | 25° |
| 2026-04-13 17:32 | 45.68574 | -0.28925 | 34074 ft | 409 kts | 26° |
| 2026-04-13 17:32 | 45.73366 | -0.24503 | 34060 ft | 410 kts | 27° |
| 2026-04-13 17:33 | 45.78155 | -0.20049 | 34067 ft | 410 kts | 27° |
| 2026-04-13 17:33 | 45.82953 | -0.15601 | 34060 ft | 411 kts | 27° |
| 2026-04-13 17:34 | 45.90201 | -0.08889 | 34056 ft | 412 kts | 27° |
| 2026-04-13 17:35 | 45.94981 | -0.04452 | 34057 ft | 412 kts | 27° |
| 2026-04-13 17:35 | 45.99797 | 0.00025 | 34040 ft | 412 kts | 27° |
| 2026-04-13 17:36 | 46.04613 | 0.04513 | 34063 ft | 412 kts | 27° |
| 2026-04-13 17:36 | 46.09423 | 0.09006 | 34055 ft | 412 kts | 27° |
| 2026-04-13 17:37 | 46.14226 | 0.13502 | 34060 ft | 411 kts | 27° |
| 2026-04-13 17:37 | 46.19020 | 0.17998 | 34060 ft | 411 kts | 27° |
| 2026-04-13 17:38 | 46.23805 | 0.22494 | 34058 ft | 410 kts | 27° |
| 2026-04-13 17:38 | 46.28582 | 0.26993 | 34058 ft | 410 kts | 27° |
| 2026-04-13 17:39 | 46.33360 | 0.31502 | 34059 ft | 410 kts | 27° |
| 2026-04-13 17:39 | 46.38133 | 0.36017 | 34066 ft | 410 kts | 27° |
| 2026-04-13 17:40 | 46.42918 | 0.40551 | 34062 ft | 411 kts | 27° |
| 2026-04-13 17:40 | 46.47702 | 0.45096 | 34050 ft | 411 kts | 28° |
| 2026-04-13 17:41 | 46.52486 | 0.49650 | 34045 ft | 411 kts | 28° |
| 2026-04-13 17:41 | 46.57474 | 0.53508 | 34061 ft | 402 kts | 14° |
| 2026-04-13 17:42 | 46.62857 | 0.55429 | 34052 ft | 398 kts | 8° |
| 2026-04-13 17:42 | 46.68269 | 0.57141 | 34050 ft | 398 kts | 8° |
| 2026-04-13 17:43 | 46.73680 | 0.58894 | 34048 ft | 399 kts | 8° |
| 2026-04-13 17:43 | 46.79102 | 0.60680 | 34047 ft | 400 kts | 8° |
| 2026-04-13 17:44 | 46.84530 | 0.62480 | 34045 ft | 400 kts | 8° |
| 2026-04-13 17:44 | 46.89963 | 0.64285 | 34044 ft | 401 kts | 8° |
| 2026-04-13 17:45 | 46.95405 | 0.66097 | 34043 ft | 401 kts | 8° |
| 2026-04-13 17:45 | 47.00814 | 0.67900 | 34036 ft | 401 kts | 8° |
| 2026-04-13 17:46 | 47.06278 | 0.69496 | 34030 ft | 398 kts | 1° |
| 2026-04-13 17:46 | 47.11785 | 0.70065 | 34029 ft | 397 kts | 359° |
| 2026-04-13 17:47 | 47.17294 | 0.70548 | 34030 ft | 396 kts | 360° |
| 2026-04-13 17:47 | 47.22799 | 0.71087 | 34031 ft | 397 kts | 0° |
| 2026-04-13 17:48 | 47.28318 | 0.71659 | 34026 ft | 397 kts | 0° |
| 2026-04-13 17:48 | 47.33836 | 0.72239 | 34023 ft | 398 kts | 0° |
| 2026-04-13 17:49 | 47.39360 | 0.72820 | 34032 ft | 398 kts | 0° |
| 2026-04-13 17:49 | 47.44887 | 0.73402 | 34016 ft | 399 kts | 0° |
| 2026-04-13 17:50 | 47.50414 | 0.74278 | 34011 ft | 403 kts | 9° |
| 2026-04-13 17:50 | 47.55782 | 0.76827 | 34024 ft | 406 kts | 14° |
| 2026-04-13 17:51 | 47.61135 | 0.79528 | 34035 ft | 407 kts | 14° |
| 2026-04-13 17:51 | 47.66468 | 0.82178 | 34025 ft | 407 kts | 14° |
| 2026-04-13 17:52 | 47.71838 | 0.84829 | 34034 ft | 407 kts | 14° |
| 2026-04-13 17:52 | 47.77216 | 0.87486 | 34033 ft | 407 kts | 14° |
| 2026-04-13 17:53 | 47.81720 | 0.89716 | 34054 ft | 408 kts | 14° |
| 2026-04-13 17:53 | 47.87973 | 0.92842 | 34042 ft | 408 kts | 14° |
| 2026-04-13 17:54 | 47.93360 | 0.95570 | 34035 ft | 409 kts | 15° |
| 2026-04-13 17:54 | 47.98742 | 0.98301 | 34041 ft | 409 kts | 15° |
| 2026-04-13 17:55 | 48.04135 | 1.01040 | 34041 ft | 409 kts | 14° |
| 2026-04-13 17:55 | 48.09528 | 1.03784 | 34037 ft | 409 kts | 14° |
| 2026-04-13 17:56 | 48.14920 | 1.06535 | 34038 ft | 410 kts | 15° |
| 2026-04-13 17:56 | 48.20313 | 1.09290 | 34039 ft | 409 kts | 15° |
| 2026-04-13 17:57 | 48.25707 | 1.12043 | 34043 ft | 410 kts | 14° |
| 2026-04-13 17:57 | 48.30198 | 1.14329 | 34037 ft | 410 kts | 14° |
| 2026-04-13 17:58 | 48.35602 | 1.17087 | 34041 ft | 410 kts | 14° |
| 2026-04-13 17:58 | 48.41009 | 1.19855 | 34033 ft | 410 kts | 14° |
| 2026-04-13 17:59 | 48.46410 | 1.22626 | 34032 ft | 411 kts | 14° |
| 2026-04-13 17:59 | 48.51817 | 1.25407 | 34039 ft | 410 kts | 14° |
| 2026-04-13 18:00 | 48.57226 | 1.28183 | 34036 ft | 411 kts | 14° |
| 2026-04-13 18:00 | 48.62649 | 1.30911 | 34040 ft | 411 kts | 15° |
| 2026-04-13 18:01 | 48.67957 | 1.33579 | 34046 ft | 413 kts | 15° |
| 2026-04-13 18:01 | 48.73417 | 1.36337 | 34048 ft | 414 kts | 15° |
| 2026-04-13 18:02 | 48.78898 | 1.39116 | 34036 ft | 416 kts | 15° |
| 2026-04-13 18:02 | 48.84392 | 1.41909 | 34043 ft | 417 kts | 15° |
| 2026-04-13 18:03 | 48.89897 | 1.44714 | 34043 ft | 418 kts | 15° |
| 2026-04-13 18:03 | 48.95409 | 1.47528 | 34044 ft | 418 kts | 15° |
| 2026-04-13 18:04 | 49.00981 | 1.49592 | 34049 ft | 413 kts | 5° |
| 2026-04-13 18:04 | 49.06671 | 1.50808 | 34044 ft | 413 kts | 5° |
| 2026-04-13 18:05 | 49.12354 | 1.52071 | 34049 ft | 413 kts | 5° |
| 2026-04-13 18:05 | 49.18037 | 1.53399 | 34034 ft | 413 kts | 6° |
| 2026-04-13 18:06 | 49.23703 | 1.54948 | 34025 ft | 416 kts | 14° |
| 2026-04-13 18:06 | 49.26378 | 1.56675 | 34045 ft | 420 kts | 25° |
| 2026-04-13 18:06 | 49.28840 | 1.59129 | 34031 ft | 425 kts | 36° |
| 2026-04-13 18:07 | 49.33163 | 1.65371 | 34037 ft | 428 kts | 41° |
| 2026-04-13 18:07 | 49.37415 | 1.71750 | 34035 ft | 429 kts | 40° |
| 2026-04-13 18:08 | 49.41720 | 1.78111 | 34035 ft | 429 kts | 40° |
| 2026-04-13 18:08 | 49.46047 | 1.84465 | 34030 ft | 431 kts | 41° |
| 2026-04-13 18:09 | 49.50385 | 1.90849 | 34050 ft | 433 kts | 41° |
| 2026-04-13 18:09 | 49.54692 | 1.97208 | 33738 ft | 425 kts | 41° |
| 2026-04-13 18:09 | 49.56800 | 2.00328 | 33460 ft | 417 kts | 41° |
| 2026-04-13 18:10 | 49.58883 | 2.03412 | 33115 ft | 413 kts | 41° |
| 2026-04-13 18:10 | 49.60916 | 2.06424 | 32752 ft | 409 kts | 41° |
| 2026-04-13 18:10 | 49.62985 | 2.09494 | 32416 ft | 405 kts | 40° |
| 2026-04-13 18:10 | 49.64981 | 2.12459 | 32058 ft | 402 kts | 40° |
| 2026-04-13 18:11 | 49.67016 | 2.15485 | 31720 ft | 399 kts | 40° |
| 2026-04-13 18:11 | 49.68980 | 2.18411 | 31384 ft | 396 kts | 40° |
| 2026-04-13 18:11 | 49.70978 | 2.21389 | 31040 ft | 393 kts | 40° |
| 2026-04-13 18:11 | 49.72941 | 2.24320 | 30725 ft | 390 kts | 40° |
| 2026-04-13 18:12 | 49.74860 | 2.27187 | 30389 ft | 389 kts | 42° |
| 2026-04-13 18:12 | 49.76779 | 2.30121 | 30034 ft | 388 kts | 47° |
| 2026-04-13 18:12 | 49.78373 | 2.33444 | 29744 ft | 384 kts | 57° |
| 2026-04-13 18:12 | 49.79607 | 2.37150 | 29015 ft | 391 kts | 64° |
| 2026-04-13 18:13 | 49.80731 | 2.41015 | 28418 ft | 395 kts | 65° |
| 2026-04-13 18:13 | 49.81837 | 2.44895 | 28013 ft | 392 kts | 65° |
| 2026-04-13 18:13 | 49.82932 | 2.48743 | 27691 ft | 388 kts | 65° |
| 2026-04-13 18:13 | 49.84018 | 2.52549 | 27334 ft | 385 kts | 65° |
| 2026-04-13 18:14 | 49.85101 | 2.56330 | 26933 ft | 381 kts | 65° |
| 2026-04-13 18:14 | 49.86176 | 2.60066 | 26447 ft | 379 kts | 65° |
| 2026-04-13 18:14 | 49.87248 | 2.63791 | 25939 ft | 377 kts | 65° |
| 2026-04-13 18:14 | 49.88317 | 2.67498 | 25473 ft | 375 kts | 65° |
| 2026-04-13 18:15 | 49.89376 | 2.71175 | 25024 ft | 372 kts | 65° |
| 2026-04-13 18:15 | 49.90430 | 2.74832 | 24427 ft | 374 kts | 70° |
| 2026-04-13 18:15 | 49.91500 | 2.78559 | 23762 ft | 381 kts | 70° |
| 2026-04-13 18:15 | 49.92575 | 2.82310 | 23281 ft | 380 kts | 70° |
| 2026-04-13 18:16 | 49.93650 | 2.86062 | 22819 ft | 380 kts | 70° |
| 2026-04-13 18:16 | 49.94720 | 2.89802 | 22446 ft | 378 kts | 71° |
| 2026-04-13 18:16 | 49.95781 | 2.93517 | 22089 ft | 375 kts | 70° |
| 2026-04-13 18:16 | 49.96835 | 2.97211 | 21749 ft | 372 kts | 70° |
| 2026-04-13 18:17 | 49.97880 | 3.00877 | 21415 ft | 370 kts | 70° |
| 2026-04-13 18:17 | 49.98913 | 3.04514 | 21089 ft | 367 kts | 70° |
| 2026-04-13 18:17 | 49.99940 | 3.08130 | 20763 ft | 364 kts | 70° |
| 2026-04-13 18:17 | 50.00958 | 3.11722 | 20436 ft | 362 kts | 70° |
| 2026-04-13 18:18 | 50.01968 | 3.15293 | 20121 ft | 359 kts | 70° |
| 2026-04-13 18:18 | 50.02967 | 3.18829 | 19802 ft | 357 kts | 70° |
| 2026-04-13 18:18 | 50.03964 | 3.22361 | 19442 ft | 355 kts | 72° |
| 2026-04-13 18:18 | 50.04950 | 3.25864 | 19143 ft | 353 kts | 72° |
| 2026-04-13 18:19 | 50.05920 | 3.29314 | 18828 ft | 351 kts | 72° |
| 2026-04-13 18:19 | 50.06895 | 3.32785 | 18512 ft | 350 kts | 71° |
| 2026-04-13 18:19 | 50.07865 | 3.36246 | 18191 ft | 348 kts | 71° |
| 2026-04-13 18:19 | 50.08829 | 3.39691 | 17835 ft | 346 kts | 71° |
| 2026-04-13 18:20 | 50.09788 | 3.43121 | 17488 ft | 344 kts | 71° |
| 2026-04-13 18:20 | 50.10739 | 3.46528 | 17181 ft | 342 kts | 70° |
| 2026-04-13 18:20 | 50.11683 | 3.49913 | 16865 ft | 339 kts | 70° |
| 2026-04-13 18:20 | 50.12617 | 3.53268 | 16547 ft | 337 kts | 70° |
| 2026-04-13 18:21 | 50.13547 | 3.56614 | 16242 ft | 334 kts | 70° |
| 2026-04-13 18:21 | 50.14466 | 3.59925 | 15946 ft | 332 kts | 69° |
| 2026-04-13 18:21 | 50.15379 | 3.63222 | 15637 ft | 330 kts | 69° |
| 2026-04-13 18:21 | 50.16285 | 3.66495 | 15322 ft | 328 kts | 69° |
| 2026-04-13 18:22 | 50.17186 | 3.69751 | 15020 ft | 326 kts | 69° |
| 2026-04-13 18:22 | 50.18077 | 3.72978 | 14726 ft | 323 kts | 69° |
| 2026-04-13 18:22 | 50.18963 | 3.76196 | 14428 ft | 321 kts | 69° |
| 2026-04-13 18:22 | 50.19842 | 3.79387 | 14136 ft | 319 kts | 69° |
| 2026-04-13 18:23 | 50.20715 | 3.82564 | 13843 ft | 317 kts | 69° |
| 2026-04-13 18:23 | 50.21582 | 3.85723 | 13506 ft | 316 kts | 68° |
| 2026-04-13 18:23 | 50.22443 | 3.88862 | 13178 ft | 313 kts | 68° |
| 2026-04-13 18:23 | 50.23295 | 3.91975 | 12896 ft | 310 kts | 68° |
| 2026-04-13 18:24 | 50.24139 | 3.95063 | 12595 ft | 308 kts | 67° |
| 2026-04-13 18:24 | 50.24974 | 3.98121 | 12309 ft | 305 kts | 67° |
| 2026-04-13 18:24 | 50.25804 | 4.01165 | 12051 ft | 302 kts | 67° |
| 2026-04-13 18:24 | 50.26621 | 4.04164 | 12001 ft | 298 kts | 67° |
| 2026-04-13 18:25 | 50.27422 | 4.07109 | 11987 ft | 290 kts | 67° |
| 2026-04-13 18:25 | 50.28192 | 4.09942 | 11975 ft | 278 kts | 67° |
| 2026-04-13 18:25 | 50.28930 | 4.12663 | 11974 ft | 265 kts | 67° |
| 2026-04-13 18:25 | 50.29634 | 4.15260 | 11967 ft | 254 kts | 67° |
| 2026-04-13 18:26 | 50.30316 | 4.17777 | 11734 ft | 249 kts | 66° |
| 2026-04-13 18:26 | 50.30987 | 4.20259 | 11375 ft | 249 kts | 66° |
| 2026-04-13 18:26 | 50.31680 | 4.22821 | 10561 ft | 266 kts | 65° |
| 2026-04-13 18:26 | 50.32432 | 4.25600 | 9801 ft | 282 kts | 64° |
| 2026-04-13 18:27 | 50.33188 | 4.28406 | 9543 ft | 281 kts | 64° |
| 2026-04-13 18:27 | 50.33954 | 4.31248 | 9258 ft | 286 kts | 65° |
| 2026-04-13 18:27 | 50.34727 | 4.34124 | 8971 ft | 288 kts | 65° |
| 2026-04-13 18:27 | 50.35500 | 4.37002 | 8679 ft | 287 kts | 65° |
| 2026-04-13 18:28 | 50.36278 | 4.39904 | 8402 ft | 291 kts | 65° |
| 2026-04-13 18:28 | 50.37059 | 4.42822 | 8109 ft | 290 kts | 65° |
| 2026-04-13 18:28 | 50.37833 | 4.45716 | 7839 ft | 287 kts | 65° |
| 2026-04-13 18:28 | 50.38599 | 4.48586 | 7546 ft | 285 kts | 65° |
| 2026-04-13 18:29 | 50.39361 | 4.51442 | 7252 ft | 283 kts | 65° |
| 2026-04-13 18:29 | 50.40119 | 4.54286 | 6911 ft | 283 kts | 66° |
| 2026-04-13 18:29 | 50.40864 | 4.57085 | 6633 ft | 281 kts | 66° |
| 2026-04-13 18:29 | 50.41613 | 4.59900 | 6346 ft | 279 kts | 66° |
| 2026-04-13 18:30 | 50.42357 | 4.62703 | 6067 ft | 277 kts | 66° |
| 2026-04-13 18:30 | 50.43095 | 4.65482 | 5784 ft | 275 kts | 65° |
| 2026-04-13 18:30 | 50.43824 | 4.68235 | 5506 ft | 273 kts | 65° |
| 2026-04-13 18:30 | 50.44547 | 4.70969 | 5279 ft | 269 kts | 65° |
| 2026-04-13 18:31 | 50.45250 | 4.73629 | 5167 ft | 259 kts | 65° |
| 2026-04-13 18:31 | 50.45924 | 4.76183 | 5044 ft | 247 kts | 64° |
| 2026-04-13 18:31 | 50.46889 | 4.78300 | 4940 ft | 234 kts | 34° |
| 2026-04-13 18:31 | 50.48326 | 4.79247 | 4909 ft | 219 kts | 7° |
| 2026-04-13 18:32 | 50.49811 | 4.79208 | 4827 ft | 213 kts | 347° |
| 2026-04-13 18:32 | 50.51207 | 4.78428 | 4629 ft | 214 kts | 336° |
| 2026-04-13 18:32 | 50.52565 | 4.77455 | 4390 ft | 215 kts | 334° |
| 2026-04-13 18:32 | 50.53673 | 4.76019 | 4429 ft | 208 kts | 301° |
| 2026-04-13 18:33 | 50.53919 | 4.73769 | 4310 ft | 219 kts | 263° |
| 2026-04-13 18:33 | 50.53521 | 4.71420 | 4027 ft | 226 kts | 254° |
| 2026-04-13 18:33 | 50.52949 | 4.69118 | 3714 ft | 226 kts | 248° |
| 2026-04-13 18:34 | 50.51654 | 4.64704 | 3124 ft | 219 kts | 248° |
| 2026-04-13 18:34 | 50.51027 | 4.62570 | 2822 ft | 209 kts | 247° |
| 2026-04-13 18:34 | 50.50444 | 4.60575 | 2536 ft | 194 kts | 246° |
| 2026-04-13 18:34 | 50.49904 | 4.58727 | 2290 ft | 178 kts | 247° |
| 2026-04-13 18:35 | 50.49409 | 4.57032 | 2111 ft | 166 kts | 247° |
| 2026-04-13 18:35 | 50.48934 | 4.55404 | 1847 ft | 165 kts | 246° |
| 2026-04-13 18:35 | 50.48450 | 4.53743 | 1616 ft | 166 kts | 246° |
| 2026-04-13 18:35 | 50.47981 | 4.52137 | 1376 ft | 160 kts | 246° |
| 2026-04-13 18:36 | 50.47531 | 4.50592 | 1156 ft | 152 kts | 247° |
| 2026-04-13 18:36 | 50.47101 | 4.49106 | 937 ft | 146 kts | 247° |
| 2026-04-13 18:36 | 50.46677 | 4.47678 | 742 ft | 143 kts | 247° |
| 2026-04-13 18:36 | 50.46272 | 4.46273 | 622 ft | 136 kts | 246° |
| 2026-04-13 18:37 | 50.46034 | 4.45466 | 623 ft | 109 kts | 245° |
| 2026-04-13 18:37 | 50.45728 | 4.44403 | 621 ft | 47 kts | 245° |
| 2026-04-13 18:37 | 50.45635 | 4.44065 | 616 ft | 18 kts | 258° |
| 2026-04-13 18:37 | 50.45675 | 4.43985 | 616 ft | 9 kts | 11° |
| 2026-04-13 18:38 | 50.45721 | 4.44045 | 612 ft | 9 kts | 50° |
| 2026-04-13 18:38 | 50.45758 | 4.44117 | 612 ft | 8 kts | 53° |
| 2026-04-13 18:38 | 50.45792 | 4.44189 | 618 ft | 8 kts | 53° |
| 2026-04-13 18:38 | 50.45826 | 4.44258 | 620 ft | 8 kts | 52° |
| 2026-04-13 18:39 | 50.45861 | 4.44329 | 618 ft | 9 kts | 52° |
| 2026-04-13 18:39 | 50.45905 | 4.44417 | 623 ft | 11 kts | 53° |
| 2026-04-13 18:39 | 50.45949 | 4.44535 | 615 ft | 14 kts | 63° |
| 2026-04-13 18:39 | 50.45992 | 4.44679 | 620 ft | 16 kts | 65° |
| 2026-04-13 18:40 | 50.46039 | 4.44844 | 617 ft | 17 kts | 65° |
| 2026-04-13 18:40 | 50.46092 | 4.45025 | 619 ft | 19 kts | 65° |
| 2026-04-13 18:40 | 50.46150 | 4.45224 | 614 ft | 21 kts | 65° |
| 2026-04-13 18:40 | 50.46212 | 4.45438 | 623 ft | 22 kts | 65° |
| 2026-04-13 18:41 | 50.46278 | 4.45665 | 617 ft | 24 kts | 65° |
| 2026-04-13 18:41 | 50.46347 | 4.45903 | 617 ft | 25 kts | 65° |
| 2026-04-13 18:41 | 50.46421 | 4.46157 | 616 ft | 26 kts | 65° |
| 2026-04-13 18:41 | 50.46486 | 4.46381 | 618 ft | 19 kts | 65° |
| 2026-04-13 18:42 | 50.46527 | 4.46521 | 616 ft | 12 kts | 60° |
| 2026-04-13 18:42 | 50.46571 | 4.46552 | 616 ft | 3 kts | 352° |
| 2026-04-13 18:42 | 50.46597 | 4.46539 | 616 ft | 5 kts | 343° |
| 2026-04-13 18:42 | 50.46632 | 4.46558 | 614 ft | 7 kts | 46° |
| 2026-04-13 18:43 | 50.46658 | 4.46635 | 621 ft | 9 kts | 63° |
| 2026-04-13 18:43 | 50.46691 | 4.46748 | 622 ft | 14 kts | 65° |
| 2026-04-13 18:43 | 50.46733 | 4.46892 | 621 ft | 14 kts | 65° |
| 2026-04-13 18:43 | 50.46773 | 4.47030 | 618 ft | 13 kts | 65° |
| 2026-04-13 18:44 | 50.46795 | 4.47105 | 619 ft | 3 kts | 65° |
| 2026-04-13 18:44 | 50.46811 | 4.47129 | 612 ft | 3 kts | 25° |
| 2026-04-13 18:44 | 50.46834 | 4.47123 | 617 ft | 3 kts | 337° |
| 2026-04-13 18:44 | 50.46855 | 4.47108 | 614 ft | 3 kts | 336° |
| 2026-04-13 18:45 | 50.46866 | 4.47101 | 614 ft | 1 kts | 335° |
| 2026-04-13 18:45 | 50.46870 | 4.47097 | 624 ft | 0 kts | 335° |
| 2026-04-13 18:45 | 50.46871 | 4.47097 | 624 ft | 0 kts | 335° |